Time;durP1;ratioP1;P1;durP2;ratioP2;P2;SDS_P1;SDS_P2;PMS_P1;PMS_P2;Temp;Humidity;BMP_temperature;BMP_pressure;BME280_temperature;BME280_humidity;BME280_pressure;Samples;Min_cycle;Max_cycle;Signal;HPM_P1;HPM_P2
2020/12/23 00:01:12;;;;;;;1.08;0.98;;;;;;;;;;2066034;28;20022;-68
2020/12/23 00:02:31;;;;;;;1.05;1.00;;;;;;;;;;2062789;28;20023;-68
2020/12/23 00:03:52;;;;;;;1.33;0.98;;;;;;;;;;2066019;28;20030;-68
2020/12/23 00:05:14;;;;;;;0.82;0.82;;;;;;;;;;2060446;28;20038;-68
2020/12/23 00:06:33;;;;;;;1.58;0.68;;;;;;;;;;2064936;28;20023;-68
2020/12/23 00:07:52;;;;;;;0.68;0.65;;;;;;;;;;2064349;28;20034;-68
2020/12/23 00:09:11;;;;;;;0.75;0.75;;;;;;;;;;2064455;28;20019;-69
2020/12/23 00:10:30;;;;;;;0.80;0.65;;;;;;;;;;2064765;28;20023;-68
2020/12/23 00:11:53;;;;;;;0.75;0.70;;;;;;;;;;2064295;28;20030;-68
2020/12/23 00:13:11;;;;;;;0.98;0.68;;;;;;;;;;2065275;28;20035;-68
2020/12/23 00:14:30;;;;;;;0.57;0.47;;;;;;;;;;2060542;28;20023;-68
2020/12/23 00:15:49;;;;;;;1.48;0.77;;;;;;;;;;2062188;28;20034;-68
2020/12/23 00:17:08;;;;;;;0.55;0.55;;;;;;;;;;2063908;28;20019;-69
2020/12/23 00:18:27;;;;;;;0.73;0.60;;;;;;;;;;2061755;28;20538;-68
2020/12/23 00:19:47;;;;;;;0.88;0.70;;;;;;;;;;2065463;28;20110;-68
2020/12/23 00:21:07;;;;;;;0.70;0.70;;;;;;;;;;2063195;28;20109;-68
2020/12/23 00:22:26;;;;;;;1.63;0.90;;;;;;;;;;2063484;28;20054;-68
2020/12/23 00:23:45;;;;;;;0.50;0.50;;;;;;;;;;2065009;28;20490;-68
2020/12/23 00:25:04;;;;;;;0.60;0.60;;;;;;;;;;2065025;28;20034;-68
2020/12/23 00:26:23;;;;;;;0.75;0.60;;;;;;;;;;2065178;28;20019;-68
2020/12/23 00:27:42;;;;;;;0.47;0.43;;;;;;;;;;2065202;28;20129;-68
2020/12/23 00:29:01;;;;;;;0.50;0.50;;;;;;;;;;2065675;28;20026;-68
2020/12/23 00:30:20;;;;;;;0.98;0.68;;;;;;;;;;2064496;28;20030;-68
2020/12/23 00:31:39;;;;;;;0.50;0.50;;;;;;;;;;2063980;28;20030;-68
2020/12/23 00:32:58;;;;;;;0.80;0.65;;;;;;;;;;2064446;28;20051;-68
2020/12/23 00:34:17;;;;;;;0.70;0.70;;;;;;;;;;2065078;28;20061;-68
2020/12/23 00:35:36;;;;;;;0.45;0.45;;;;;;;;;;2060018;28;20401;-68
2020/12/23 00:36:56;;;;;;;0.90;0.60;;;;;;;;;;2061036;28;20027;-68
2020/12/23 00:38:14;;;;;;;0.60;0.60;;;;;;;;;;2060884;28;20019;-68
2020/12/23 00:39:33;;;;;;;0.60;0.60;;;;;;;;;;2063561;28;20061;-68
2020/12/23 00:40:52;;;;;;;0.65;0.52;;;;;;;;;;2065362;28;20034;-68
2020/12/23 00:42:11;;;;;;;0.75;0.60;;;;;;;;;;2062979;28;20026;-68
2020/12/23 00:43:30;;;;;;;1.23;0.60;;;;;;;;;;2062353;28;20027;-68
2020/12/23 00:44:49;;;;;;;0.70;0.60;;;;;;;;;;2061889;28;20030;-68
2020/12/23 00:46:12;;;;;;;0.50;0.50;;;;;;;;;;2063044;28;20030;-68
2020/12/23 00:47:31;;;;;;;;;;;;;;;;;;2064020;28;20479;-68
2020/12/23 00:48:50;;;;;;;0.65;0.63;;;;;;;;;;2064860;28;20334;-68
2020/12/23 00:50:08;;;;;;;0.77;0.50;;;;;;;;;;2064907;28;20026;-69
2020/12/23 00:51:27;;;;;;;0.50;0.50;;;;;;;;;;2060463;28;20018;-68
2020/12/23 00:52:46;;;;;;;0.95;0.60;;;;;;;;;;2063241;28;20066;-68
2020/12/23 00:54:05;;;;;;;0.55;0.52;;;;;;;;;;2062542;28;20078;-68
2020/12/23 00:55:24;;;;;;;0.70;0.70;;;;;;;;;;2061977;28;20019;-68
2020/12/23 00:56:42;;;;;;;0.73;0.63;;;;;;;;;;2065645;28;20026;-68
2020/12/23 00:58:01;;;;;;;1.63;0.63;;;;;;;;;;2064449;28;20018;-68
2020/12/23 00:59:20;;;;;;;0.90;0.75;;;;;;;;;;2063032;28;20430;-68
2020/12/23 01:00:39;;;;;;;0.60;0.60;;;;;;;;;;2062792;28;20030;-68
2020/12/23 01:02:01;;;;;;;0.63;0.63;;;;;;;;;;2065650;28;20023;-68
2020/12/23 01:03:20;;;;;;;0.60;0.60;;;;;;;;;;2063609;28;20018;-68
2020/12/23 01:04:39;;;;;;;0.63;0.60;;;;;;;;;;2065060;28;20027;-68
2020/12/23 01:05:58;;;;;;;0.65;0.65;;;;;;;;;;2059573;28;20455;-67
2020/12/23 01:07:17;;;;;;;0.50;0.40;;;;;;;;;;2063591;28;20053;-68
2020/12/23 01:08:36;;;;;;;0.45;0.45;;;;;;;;;;2064225;28;20022;-67
2020/12/23 01:09:55;;;;;;;0.75;0.57;;;;;;;;;;2064858;28;20105;-68
2020/12/23 01:11:14;;;;;;;3.55;0.80;;;;;;;;;;2063998;28;20109;-68
2020/12/23 01:12:33;;;;;;;0.70;0.70;;;;;;;;;;2059949;28;20034;-68
2020/12/23 01:13:52;;;;;;;0.80;0.50;;;;;;;;;;2062890;28;20030;-67
2020/12/23 01:15:11;;;;;;;0.50;0.50;;;;;;;;;;2065737;28;20474;-68
2020/12/23 01:16:30;;;;;;;0.50;0.50;;;;;;;;;;2064471;28;20034;-68
2020/12/23 01:17:49;;;;;;;0.50;0.50;;;;;;;;;;2063640;28;20026;-68
2020/12/23 01:19:08;;;;;;;0.73;0.55;;;;;;;;;;2061065;28;21100;-67
2020/12/23 01:20:27;;;;;;;0.77;0.60;;;;;;;;;;2065153;28;20382;-67
2020/12/23 01:21:46;;;;;;;0.45;0.45;;;;;;;;;;2063112;28;20031;-68
2020/12/23 01:23:04;;;;;;;0.93;0.65;;;;;;;;;;2064364;28;20030;-68
2020/12/23 01:24:24;;;;;;;0.60;0.60;;;;;;;;;;2064858;28;20475;-68
2020/12/23 01:25:43;;;;;;;0.60;0.52;;;;;;;;;;2063978;28;20405;-68
2020/12/23 01:27:02;;;;;;;0.32;0.30;;;;;;;;;;2064432;28;20723;-68
2020/12/23 01:28:21;;;;;;;0.65;0.40;;;;;;;;;;2062745;28;20050;-68
2020/12/23 01:29:40;;;;;;;0.40;0.40;;;;;;;;;;2061196;28;20022;-68
2020/12/23 01:30:59;;;;;;;0.30;0.30;;;;;;;;;;2065487;28;20027;-68
2020/12/23 01:32:18;;;;;;;1.45;0.55;;;;;;;;;;2063419;28;20026;-68
2020/12/23 01:33:37;;;;;;;0.50;0.45;;;;;;;;;;2062076;28;20034;-67
2020/12/23 01:34:56;;;;;;;0.38;0.38;;;;;;;;;;2063156;28;20038;-67
2020/12/23 01:36:15;;;;;;;1.83;0.40;;;;;;;;;;2062205;28;20030;-67
2020/12/23 01:37:34;;;;;;;0.40;0.30;;;;;;;;;;2063170;28;20030;-68
2020/12/23 01:38:53;;;;;;;0.38;0.35;;;;;;;;;;2064508;28;20022;-67
2020/12/23 01:40:12;;;;;;;0.47;0.45;;;;;;;;;;2064483;28;20023;-67
2020/12/23 01:41:31;;;;;;;0.40;0.40;;;;;;;;;;2065405;28;20022;-67
2020/12/23 01:42:49;;;;;;;0.30;0.30;;;;;;;;;;2062651;28;20065;-67
2020/12/23 01:44:08;;;;;;;0.30;0.30;;;;;;;;;;2062248;28;20034;-67
2020/12/23 01:45:27;;;;;;;0.50;0.30;;;;;;;;;;2062368;28;20026;-67
2020/12/23 01:46:46;;;;;;;0.25;0.25;;;;;;;;;;2063634;28;20398;-67
2020/12/23 01:48:28;;;;;;;0.52;0.30;;;;;;;;;;2061551;28;20022;-67
2020/12/23 01:49:50;;;;;;;0.30;0.30;;;;;;;;;;2064479;28;20026;-67
2020/12/23 01:51:09;;;;;;;0.20;0.20;;;;;;;;;;2065228;28;20038;-68
2020/12/23 01:52:28;;;;;;;0.22;0.20;;;;;;;;;;2062738;28;20490;-68
2020/12/23 01:53:48;;;;;;;0.50;0.40;;;;;;;;;;2062096;28;20483;-68
2020/12/23 01:55:11;;;;;;;0.20;0.20;;;;;;;;;;2064484;28;20026;-68
2020/12/23 01:56:30;;;;;;;;;;;;;;;;;;2063901;28;20066;-68
2020/12/23 01:57:49;;;;;;;1.08;0.40;;;;;;;;;;2063249;28;19906;-68
2020/12/23 01:59:08;;;;;;;0.30;0.22;;;;;;;;;;2064519;28;20034;-68
2020/12/23 02:00:26;;;;;;;0.57;0.30;;;;;;;;;;2064422;28;20398;-68
2020/12/23 02:01:47;;;;;;;0.20;0.20;;;;;;;;;;2064087;28;20034;-68
2020/12/23 02:03:08;;;;;;;0.30;0.28;;;;;;;;;;2064516;28;20031;-68
2020/12/23 02:04:32;;;;;;;0.55;0.20;;;;;;;;;;2062415;28;20030;-68
2020/12/23 02:05:50;;;;;;;0.50;0.22;;;;;;;;;;2064224;28;20557;-68
2020/12/23 02:07:09;;;;;;;0.20;0.20;;;;;;;;;;2063579;28;20490;-68
2020/12/23 02:08:29;;;;;;;0.30;0.20;;;;;;;;;;2061303;28;20026;-68
2020/12/23 02:09:50;;;;;;;0.50;0.30;;;;;;;;;;2063768;28;20026;-68
2020/12/23 02:11:10;;;;;;;0.57;0.22;;;;;;;;;;2064407;28;20030;-68
2020/12/23 02:12:29;;;;;;;0.90;0.20;;;;;;;;;;2065024;28;20026;-69
2020/12/23 02:13:48;;;;;;;0.20;0.20;;;;;;;;;;2064141;28;20030;-68
2020/12/23 02:15:11;;;;;;;0.47;0.10;;;;;;;;;;2065083;28;20422;-69
2020/12/23 02:16:30;;;;;;;0.15;0.10;;;;;;;;;;2064391;28;20105;-69
2020/12/23 02:17:49;;;;;;;0.30;0.30;;;;;;;;;;2064325;28;20027;-68
2020/12/23 02:19:08;;;;;;;0.30;0.30;;;;;;;;;;2059201;28;20030;-68
2020/12/23 02:20:27;;;;;;;0.90;0.30;;;;;;;;;;2064916;28;20054;-68
2020/12/23 02:21:46;;;;;;;0.52;0.30;;;;;;;;;;2056864;28;20038;-68
2020/12/23 02:23:05;;;;;;;1.10;0.32;;;;;;;;;;2061573;28;20038;-68
2020/12/23 02:24:25;;;;;;;0.20;0.20;;;;;;;;;;2059412;28;20030;-68
2020/12/23 02:25:43;;;;;;;0.50;0.30;;;;;;;;;;2063270;28;20035;-68
2020/12/23 02:27:02;;;;;;;0.70;0.32;;;;;;;;;;2058744;28;20118;-68
2020/12/23 02:28:21;;;;;;;0.40;0.40;;;;;;;;;;2062026;28;20046;-68
2020/12/23 02:29:41;;;;;;;0.28;0.28;;;;;;;;;;2064690;28;20034;-68
2020/12/23 02:31:01;;;;;;;0.90;0.50;;;;;;;;;;2060035;28;20034;-68
2020/12/23 02:32:20;;;;;;;1.02;0.40;;;;;;;;;;2062697;28;20026;-68
2020/12/23 02:33:39;;;;;;;0.50;0.40;;;;;;;;;;2064429;28;20022;-68
2020/12/23 02:34:58;;;;;;;0.47;0.47;;;;;;;;;;2058623;28;20034;-68
2020/12/23 02:36:17;;;;;;;0.57;0.30;;;;;;;;;;2057773;28;20019;-67
2020/12/23 02:37:36;;;;;;;0.35;0.35;;;;;;;;;;2057321;28;20019;-67
2020/12/23 02:38:55;;;;;;;0.50;0.32;;;;;;;;;;2064489;28;20383;-68
2020/12/23 02:40:14;;;;;;;0.38;0.38;;;;;;;;;;2064398;28;20023;-67
2020/12/23 02:41:33;;;;;;;0.63;0.35;;;;;;;;;;2061074;28;20023;-67
2020/12/23 02:42:52;;;;;;;0.50;0.38;;;;;;;;;;2058155;28;20030;-67
2020/12/23 02:44:11;;;;;;;0.28;0.28;;;;;;;;;;2057803;28;20495;-68
2020/12/23 02:45:30;;;;;;;0.47;0.30;;;;;;;;;;2058722;28;20488;-68
2020/12/23 02:46:53;;;;;;;0.47;0.20;;;;;;;;;;2064936;28;20031;-67
2020/12/23 02:48:12;;;;;;;0.20;0.20;;;;;;;;;;2062594;28;20503;-68
2020/12/23 02:49:31;;;;;;;0.20;0.20;;;;;;;;;;2064649;28;20026;-68
2020/12/23 02:50:50;;;;;;;0.45;0.30;;;;;;;;;;2064868;28;20026;-68
2020/12/23 02:52:10;;;;;;;0.40;0.30;;;;;;;;;;2066682;28;20027;-68
2020/12/23 02:53:28;;;;;;;1.10;0.40;;;;;;;;;;2066582;28;20036;-68
2020/12/23 02:54:47;;;;;;;0.38;0.20;;;;;;;;;;2064817;28;20030;-68
2020/12/23 02:56:06;;;;;;;0.35;0.22;;;;;;;;;;2066539;28;20018;-68
2020/12/23 02:57:25;;;;;;;1.55;0.57;;;;;;;;;;2065674;28;20478;-68
2020/12/23 02:58:44;;;;;;;0.63;0.30;;;;;;;;;;2066777;28;20466;-68
2020/12/23 03:00:04;;;;;;;0.80;0.20;;;;;;;;;;2066773;28;20067;-67
2020/12/23 03:01:22;;;;;;;1.33;0.20;;;;;;;;;;2065941;28;20022;-68
2020/12/23 03:02:42;;;;;;;1.30;0.20;;;;;;;;;;2061578;28;20034;-68
2020/12/23 03:04:01;;;;;;;0.15;0.15;;;;;;;;;;2065757;28;20121;-68
2020/12/23 03:05:20;;;;;;;3.28;1.02;;;;;;;;;;2065531;28;20549;-68
2020/12/23 03:06:39;;;;;;;0.40;0.32;;;;;;;;;;2063476;28;20042;-68
2020/12/23 03:07:57;;;;;;;2.45;0.30;;;;;;;;;;2066160;28;20030;-68
2020/12/23 03:09:16;;;;;;;0.30;0.30;;;;;;;;;;2061700;28;20497;-68
2020/12/23 03:10:35;;;;;;;0.55;0.30;;;;;;;;;;2065841;28;20101;-68
2020/12/23 03:11:54;;;;;;;0.77;0.28;;;;;;;;;;2063921;28;20050;-68
2020/12/23 03:13:13;;;;;;;0.38;0.20;;;;;;;;;;2064604;28;20023;-68
2020/12/23 03:14:32;;;;;;;0.28;0.22;;;;;;;;;;2066082;28;20034;-67
2020/12/23 03:15:51;;;;;;;0.20;0.20;;;;;;;;;;2066756;28;20058;-68
2020/12/23 03:17:10;;;;;;;0.75;0.30;;;;;;;;;;2066331;28;20078;-68
2020/12/23 03:18:29;;;;;;;0.50;0.30;;;;;;;;;;2064607;28;20058;-68
2020/12/23 03:19:48;;;;;;;1.13;0.40;;;;;;;;;;2064823;28;20411;-68
2020/12/23 03:21:07;;;;;;;1.27;0.20;;;;;;;;;;2065226;28;20022;-68
2020/12/23 03:22:26;;;;;;;1.77;0.38;;;;;;;;;;2063959;28;20031;-68
2020/12/23 03:23:45;;;;;;;1.08;0.30;;;;;;;;;;2066120;28;20030;-68
2020/12/23 03:25:04;;;;;;;1.13;0.43;;;;;;;;;;2065444;28;20038;-68
2020/12/23 03:26:23;;;;;;;1.30;0.45;;;;;;;;;;2059886;28;20058;-68
2020/12/23 03:27:42;;;;;;;0.70;0.30;;;;;;;;;;2058197;28;20494;-67
2020/12/23 03:29:01;;;;;;;4.32;0.40;;;;;;;;;;2063791;28;20105;-67
2020/12/23 03:30:20;;;;;;;1.15;0.40;;;;;;;;;;2064146;28;20073;-68
2020/12/23 03:31:39;;;;;;;2.22;0.40;;;;;;;;;;2064642;28;20026;-68
2020/12/23 03:32:58;;;;;;;2.38;0.40;;;;;;;;;;2066737;28;20035;-68
2020/12/23 03:34:17;;;;;;;0.47;0.20;;;;;;;;;;2064679;28;20216;-68
2020/12/23 03:35:36;;;;;;;2.00;0.30;;;;;;;;;;2064377;28;20030;-68
2020/12/23 03:36:54;;;;;;;1.33;0.22;;;;;;;;;;2063782;28;20105;-67
2020/12/23 03:38:13;;;;;;;1.55;0.30;;;;;;;;;;2058161;28;20026;-68
2020/12/23 03:39:32;;;;;;;1.58;0.40;;;;;;;;;;2063461;28;20097;-68
2020/12/23 03:40:52;;;;;;;0.80;0.35;;;;;;;;;;2062912;28;20034;-68
2020/12/23 03:42:10;;;;;;;2.13;0.45;;;;;;;;;;2063060;28;20015;-67
2020/12/23 03:43:29;;;;;;;0.47;0.20;;;;;;;;;;2064351;28;20125;-68
2020/12/23 03:44:48;;;;;;;1.35;0.30;;;;;;;;;;2063494;28;20018;-68
2020/12/23 03:46:07;;;;;;;0.95;0.28;;;;;;;;;;2065682;28;20026;-68
2020/12/23 03:47:26;;;;;;;0.35;0.35;;;;;;;;;;2062098;28;20018;-68
2020/12/23 03:48:45;;;;;;;0.93;0.38;;;;;;;;;;2062341;28;20489;-68
2020/12/23 03:50:04;;;;;;;2.50;0.30;;;;;;;;;;2059068;28;20026;-68
2020/12/23 03:51:23;;;;;;;0.95;0.20;;;;;;;;;;2064831;28;20026;-68
2020/12/23 03:52:42;;;;;;;0.88;0.30;;;;;;;;;;2062286;28;20031;-68
2020/12/23 03:54:01;;;;;;;1.73;0.30;;;;;;;;;;2064557;28;20105;-68
2020/12/23 03:55:20;;;;;;;3.20;0.30;;;;;;;;;;2062209;28;20022;-68
2020/12/23 03:56:39;;;;;;;1.52;0.30;;;;;;;;;;2061348;28;20034;-67
2020/12/23 03:57:58;;;;;;;1.05;0.32;;;;;;;;;;2061124;28;20023;-68
2020/12/23 03:59:17;;;;;;;0.40;0.35;;;;;;;;;;2059770;28;20374;-68
2020/12/23 04:00:35;;;;;;;1.48;0.30;;;;;;;;;;2063137;28;20018;-68
2020/12/23 04:01:54;;;;;;;0.55;0.20;;;;;;;;;;2061789;28;20022;-68
2020/12/23 04:03:13;;;;;;;1.85;0.60;;;;;;;;;;2059638;28;20027;-68
2020/12/23 04:04:32;;;;;;;1.55;0.25;;;;;;;;;;2059718;28;20035;-68
2020/12/23 04:05:51;;;;;;;1.45;0.30;;;;;;;;;;2064174;28;20034;-68
2020/12/23 04:07:10;;;;;;;0.85;0.30;;;;;;;;;;2064845;28;20132;-68
2020/12/23 04:08:29;;;;;;;1.20;0.30;;;;;;;;;;2065392;28;20026;-68
2020/12/23 04:09:48;;;;;;;1.73;0.82;;;;;;;;;;2064467;28;20042;-68
2020/12/23 04:11:07;;;;;;;1.45;0.30;;;;;;;;;;2059972;28;20062;-68
2020/12/23 04:12:26;;;;;;;2.90;0.40;;;;;;;;;;2063515;28;20066;-68
2020/12/23 04:13:45;;;;;;;2.00;0.75;;;;;;;;;;2063939;28;20066;-68
2020/12/23 04:15:08;;;;;;;5.68;0.50;;;;;;;;;;2057598;28;20118;-68
2020/12/23 04:16:27;;;;;;;1.60;0.30;;;;;;;;;;2060215;28;20026;-68
2020/12/23 04:17:46;;;;;;;2.75;0.55;;;;;;;;;;2065760;28;20026;-68
2020/12/23 04:19:05;;;;;;;0.40;0.30;;;;;;;;;;2066192;28;20483;-67
2020/12/23 04:20:24;;;;;;;4.75;0.52;;;;;;;;;;2065661;28;20039;-68
2020/12/23 04:21:43;;;;;;;6.07;1.40;;;;;;;;;;2062019;28;20038;-67
2020/12/23 04:23:02;;;;;;;2.67;0.30;;;;;;;;;;2059211;28;20035;-67
2020/12/23 04:24:21;;;;;;;1.95;0.50;;;;;;;;;;2059064;28;20030;-67
2020/12/23 04:25:40;;;;;;;1.67;0.30;;;;;;;;;;2064075;28;20030;-68
2020/12/23 04:27:00;;;;;;;1.60;0.43;;;;;;;;;;2064657;28;20560;-68
2020/12/23 04:28:19;;;;;;;2.47;0.30;;;;;;;;;;2065312;28;20042;-68
2020/12/23 04:29:38;;;;;;;1.67;0.47;;;;;;;;;;2065300;28;20046;-68
2020/12/23 04:30:56;;;;;;;5.82;0.47;;;;;;;;;;2065614;28;20031;-68
2020/12/23 04:32:16;;;;;;;0.82;0.40;;;;;;;;;;2065948;28;20038;-68
2020/12/23 04:33:34;;;;;;;2.55;0.68;;;;;;;;;;2061671;28;20031;-68
2020/12/23 04:34:53;;;;;;;1.75;0.40;;;;;;;;;;2062763;28;20042;-68
2020/12/23 04:36:12;;;;;;;3.72;0.40;;;;;;;;;;2062644;28;20102;-68
2020/12/23 04:37:32;;;;;;;3.35;1.00;;;;;;;;;;2063914;28;20022;-68
2020/12/23 04:38:51;;;;;;;2.38;0.47;;;;;;;;;;2062256;28;20034;-68
2020/12/23 04:40:09;;;;;;;4.90;1.23;;;;;;;;;;2061916;28;20035;-68
2020/12/23 04:41:28;;;;;;;5.07;0.75;;;;;;;;;;2062898;28;20022;-68
2020/12/23 04:42:48;;;;;;;2.45;0.50;;;;;;;;;;2061129;28;20121;-68
2020/12/23 04:44:07;;;;;;;3.95;0.60;;;;;;;;;;2065737;28;20030;-68
2020/12/23 04:45:26;;;;;;;1.60;0.60;;;;;;;;;;2065429;28;20414;-68
2020/12/23 04:46:46;;;;;;;3.45;1.17;;;;;;;;;;2064658;28;20502;-68
2020/12/23 04:48:07;;;;;;;7.28;0.45;;;;;;;;;;2064212;28;20034;-68
2020/12/23 04:49:26;;;;;;;0.52;0.40;;;;;;;;;;2061011;28;20394;-69
2020/12/23 04:50:45;;;;;;;2.55;0.80;;;;;;;;;;2063739;28;20047;-68
2020/12/23 04:52:05;;;;;;;1.17;0.40;;;;;;;;;;2060573;28;20383;-68
2020/12/23 04:53:24;;;;;;;4.57;0.65;;;;;;;;;;2061429;28;20030;-68
2020/12/23 04:54:43;;;;;;;4.88;0.88;;;;;;;;;;2065825;28;20451;-68
2020/12/23 04:56:03;;;;;;;4.57;0.52;;;;;;;;;;2060777;28;20023;-68
2020/12/23 04:57:23;;;;;;;2.92;0.32;;;;;;;;;;2064074;28;20093;-68
2020/12/23 04:58:42;;;;;;;2.92;1.00;;;;;;;;;;2060364;28;20035;-68
2020/12/23 05:00:01;;;;;;;3.55;0.50;;;;;;;;;;2059694;28;21557;-68
2020/12/23 05:01:20;;;;;;;4.32;0.60;;;;;;;;;;2056107;28;20065;-68
2020/12/23 05:02:39;;;;;;;5.70;0.70;;;;;;;;;;2059913;28;20495;-68
2020/12/23 05:03:58;;;;;;;2.35;0.43;;;;;;;;;;2057645;28;20113;-68
2020/12/23 05:05:17;;;;;;;4.97;1.08;;;;;;;;;;2058801;28;20042;-68
2020/12/23 05:06:36;;;;;;;1.65;0.55;;;;;;;;;;2062101;28;20026;-68
2020/12/23 05:07:55;;;;;;;3.00;0.40;;;;;;;;;;2064050;28;20030;-68
2020/12/23 05:09:14;;;;;;;2.25;0.82;;;;;;;;;;2062393;28;20027;-68
2020/12/23 05:10:33;;;;;;;3.60;0.93;;;;;;;;;;2064376;28;20390;-68
2020/12/23 05:11:53;;;;;;;1.35;0.63;;;;;;;;;;2059368;28;20117;-68
2020/12/23 05:13:12;;;;;;;1.65;0.55;;;;;;;;;;2058822;28;20031;-68
2020/12/23 05:14:33;;;;;;;4.68;0.63;;;;;;;;;;2058468;28;20026;-68
2020/12/23 05:15:52;;;;;;;3.67;0.60;;;;;;;;;;2058525;28;20023;-68
2020/12/23 05:17:11;;;;;;;4.75;0.57;;;;;;;;;;2065038;28;20023;-68
2020/12/23 05:18:30;;;;;;;4.90;0.70;;;;;;;;;;2064110;28;20018;-68
2020/12/23 05:19:51;;;;;;;4.03;1.58;;;;;;;;;;2060162;28;20721;-68
2020/12/23 05:21:16;;;;;;;3.08;0.50;;;;;;;;;;2063580;28;20030;-68
2020/12/23 05:22:36;;;;;;;4.03;0.60;;;;;;;;;;2065369;28;20030;-68
2020/12/23 05:23:56;;;;;;;7.45;0.60;;;;;;;;;;2066281;28;20026;-68
2020/12/23 05:25:18;;;;;;;4.60;0.57;;;;;;;;;;2055098;28;20042;-68
2020/12/23 05:26:44;;;;;;;3.10;0.65;;;;;;;;;;2061761;28;20030;-68
2020/12/23 05:28:03;;;;;;;4.40;0.60;;;;;;;;;;2060767;28;20049;-68
2020/12/23 05:29:22;;;;;;;4.55;1.05;;;;;;;;;;2062821;28;20019;-67
2020/12/23 05:30:40;;;;;;;2.80;0.63;;;;;;;;;;2061093;28;20027;-68
2020/12/23 05:32:01;;;;;;;7.30;0.88;;;;;;;;;;2059502;28;20530;-67
2020/12/23 05:33:19;;;;;;;2.35;0.63;;;;;;;;;;2059786;28;20030;-68
2020/12/23 05:34:40;;;;;;;6.13;0.80;;;;;;;;;;2060325;28;20039;-67
2020/12/23 05:36:00;;;;;;;4.10;0.60;;;;;;;;;;2061158;28;20035;-68
2020/12/23 05:37:19;;;;;;;2.13;0.57;;;;;;;;;;2063957;28;20027;-67
2020/12/23 05:38:39;;;;;;;4.82;0.77;;;;;;;;;;2059557;28;20022;-68
2020/12/23 05:39:59;;;;;;;3.50;0.55;;;;;;;;;;2059221;28;20487;-67
2020/12/23 05:41:18;;;;;;;2.85;1.13;;;;;;;;;;2063030;28;20038;-68
2020/12/23 05:42:38;;;;;;;4.13;1.60;;;;;;;;;;2061175;28;20026;-67
2020/12/23 05:43:57;;;;;;;9.45;0.75;;;;;;;;;;2062266;28;20034;-67
2020/12/23 05:45:16;;;;;;;5.85;0.82;;;;;;;;;;2062345;28;20031;-68
2020/12/23 05:46:36;;;;;;;7.57;0.73;;;;;;;;;;2064077;28;20038;-67
2020/12/23 05:47:55;;;;;;;6.32;0.88;;;;;;;;;;2061590;28;20030;-67
2020/12/23 05:49:16;;;;;;;4.85;0.85;;;;;;;;;;2063660;28;20445;-68
2020/12/23 05:50:35;;;;;;;2.30;1.15;;;;;;;;;;2062949;28;20035;-67
2020/12/23 05:51:54;;;;;;;8.75;1.15;;;;;;;;;;2060417;28;20035;-67
2020/12/23 05:53:13;;;;;;;2.30;0.80;;;;;;;;;;2059639;28;20430;-67
2020/12/23 05:54:34;;;;;;;5.07;0.80;;;;;;;;;;2060552;28;20038;-67
2020/12/23 05:55:53;;;;;;;8.48;0.80;;;;;;;;;;2061449;28;20019;-67
2020/12/23 05:57:12;;;;;;;5.15;0.95;;;;;;;;;;2058251;28;20099;-68
2020/12/23 05:58:32;;;;;;;4.95;0.68;;;;;;;;;;2064001;28;20019;-67
2020/12/23 05:59:51;;;;;;;3.03;0.90;;;;;;;;;;2062940;28;20026;-67
2020/12/23 06:01:10;;;;;;;5.68;0.90;;;;;;;;;;2064881;28;20022;-67
2020/12/23 06:02:33;;;;;;;2.83;0.65;;;;;;;;;;2057792;28;20471;-67
2020/12/23 06:03:55;;;;;;;13.68;0.88;;;;;;;;;;2064020;28;20042;-67
2020/12/23 06:05:18;;;;;;;2.00;0.60;;;;;;;;;;2062630;28;20506;-67
2020/12/23 06:06:37;;;;;;;4.82;0.70;;;;;;;;;;2061832;28;20039;-67
2020/12/23 06:07:57;;;;;;;6.38;1.00;;;;;;;;;;2061969;28;20030;-67
2020/12/23 06:09:17;;;;;;;4.18;0.60;;;;;;;;;;2059923;28;20038;-67
2020/12/23 06:10:39;;;;;;;3.33;0.70;;;;;;;;;;2061672;28;20027;-67
2020/12/23 06:12:07;;;;;;;5.38;0.82;;;;;;;;;;2065412;28;20038;-67
2020/12/23 06:13:35;;;;;;;9.95;1.13;;;;;;;;;;2061923;28;20034;-67
2020/12/23 06:14:58;;;;;;;6.78;1.20;;;;;;;;;;2064198;28;20023;-64
2020/12/23 06:16:25;;;;;;;4.55;0.65;;;;;;;;;;2063443;28;20054;-64
2020/12/23 06:17:48;;;;;;;1.40;0.65;;;;;;;;;;2058725;28;20027;-64
2020/12/23 06:19:08;;;;;;;5.68;1.17;;;;;;;;;;2057767;28;20042;-64
2020/12/23 06:20:29;;;;;;;5.68;1.27;;;;;;;;;;2064460;28;20027;-65
2020/12/23 06:21:49;;;;;;;4.55;1.15;;;;;;;;;;2063223;28;20035;-64
2020/12/23 06:23:10;;;;;;;4.35;0.95;;;;;;;;;;2059771;28;20035;-64
2020/12/23 06:24:29;;;;;;;4.60;0.77;;;;;;;;;;2063553;28;20034;-64
2020/12/23 06:25:49;;;;;;;6.20;1.20;;;;;;;;;;2060190;28;20060;-64
2020/12/23 06:27:09;;;;;;;3.42;0.98;;;;;;;;;;2057444;28;20056;-64
2020/12/23 06:28:31;;;;;;;5.07;1.10;;;;;;;;;;2058710;28;20046;-65
2020/12/23 06:29:50;;;;;;;7.47;1.88;;;;;;;;;;2059969;28;20027;-64
2020/12/23 06:31:09;;;;;;;3.97;1.00;;;;;;;;;;2058509;28;20027;-64
2020/12/23 06:32:28;;;;;;;7.30;1.10;;;;;;;;;;2062918;28;20026;-65
2020/12/23 06:33:49;;;;;;;5.55;1.48;;;;;;;;;;2059084;28;20495;-64
2020/12/23 06:35:08;;;;;;;2.28;0.80;;;;;;;;;;2063245;28;20018;-64
2020/12/23 06:36:29;;;;;;;6.50;0.88;;;;;;;;;;2061192;28;20019;-64
2020/12/23 06:37:47;;;;;;;5.40;0.73;;;;;;;;;;2061438;28;20467;-64
2020/12/23 06:39:19;;;;;;;9.52;0.90;;;;;;;;;;2061684;28;20030;-64
2020/12/23 06:40:55;;;;;;;6.85;0.88;;;;;;;;;;2062050;28;20449;-64
2020/12/23 06:42:14;;;;;;;4.60;0.95;;;;;;;;;;2059907;28;20018;-64
2020/12/23 06:43:52;;;;;;;7.25;1.00;;;;;;;;;;2063651;28;20053;-64
2020/12/23 06:45:12;;;;;;;4.03;0.90;;;;;;;;;;2062522;28;20026;-65
2020/12/23 06:46:50;;;;;;;6.43;0.93;;;;;;;;;;2062046;28;20023;-64
2020/12/23 06:48:16;;;;;;;3.45;0.90;;;;;;;;;;2064064;28;20031;-64
2020/12/23 06:49:42;;;;;;;8.45;1.10;;;;;;;;;;2059148;28;20027;-64
2020/12/23 06:51:01;;;;;;;8.18;1.52;;;;;;;;;;2061682;28;20030;-63
2020/12/23 06:52:24;;;;;;;4.13;1.08;;;;;;;;;;2061378;28;20109;-65
2020/12/23 06:53:43;;;;;;;7.65;1.60;;;;;;;;;;2061153;28;20101;-64
2020/12/23 06:55:02;;;;;;;4.60;1.08;;;;;;;;;;2059953;28;20453;-64
2020/12/23 06:56:41;;;;;;;8.45;0.85;;;;;;;;;;2063229;28;20398;-64
2020/12/23 06:58:00;;;;;;;5.60;0.93;;;;;;;;;;2059679;28;20058;-65
2020/12/23 06:59:38;;;;;;;6.88;1.30;;;;;;;;;;2059703;28;20034;-63
2020/12/23 07:01:13;;;;;;;6.00;1.00;;;;;;;;;;2063650;28;20034;-64
2020/12/23 07:02:41;;;;;;;8.13;1.00;;;;;;;;;;2062039;28;20014;-65
2020/12/23 07:04:01;;;;;;;5.15;0.85;;;;;;;;;;2060771;28;20050;-65
2020/12/23 07:05:20;;;;;;;8.27;2.17;;;;;;;;;;2060810;28;20026;-65
2020/12/23 07:06:39;;;;;;;7.50;1.35;;;;;;;;;;2059492;28;20062;-65
2020/12/23 07:07:59;;;;;;;6.63;2.08;;;;;;;;;;2064221;28;20443;-65
2020/12/23 07:09:21;;;;;;;7.30;0.95;;;;;;;;;;2062385;28;20467;-65
2020/12/23 07:10:41;;;;;;;14.68;1.42;;;;;;;;;;2062168;28;20478;-64
2020/12/23 07:12:02;;;;;;;7.72;0.90;;;;;;;;;;2062029;28;20022;-65
2020/12/23 07:13:21;;;;;;;3.42;0.80;;;;;;;;;;2062824;28;20109;-64
2020/12/23 07:15:00;;;;;;;4.30;1.20;;;;;;;;;;2063313;28;20069;-65
2020/12/23 07:16:19;;;;;;;5.38;1.08;;;;;;;;;;2063543;28;20022;-65
2020/12/23 07:17:39;;;;;;;7.25;0.90;;;;;;;;;;2060949;28;20430;-65
2020/12/23 07:18:59;;;;;;;10.90;3.15;;;;;;;;;;2061221;28;20462;-64
2020/12/23 07:20:21;;;;;;;15.05;2.47;;;;;;;;;;2063572;28;20031;-65
2020/12/23 07:21:40;;;;;;;7.05;1.08;;;;;;;;;;2059081;28;21825;-64
2020/12/23 07:23:00;;;;;;;5.35;1.50;;;;;;;;;;2060350;28;20034;-64
2020/12/23 07:24:20;;;;;;;6.55;1.40;;;;;;;;;;2061487;28;20030;-64
2020/12/23 07:25:45;;;;;;;9.20;1.25;;;;;;;;;;2061678;28;20030;-64
2020/12/23 07:27:04;;;;;;;9.55;1.17;;;;;;;;;;2058048;28;20347;-65
2020/12/23 07:28:28;;;;;;;6.28;1.08;;;;;;;;;;2056984;28;20042;-64
2020/12/23 07:29:50;;;;;;;6.80;0.80;;;;;;;;;;2060501;28;20034;-64
2020/12/23 07:31:10;;;;;;;6.57;1.30;;;;;;;;;;2063216;28;20030;-64
2020/12/23 07:32:29;;;;;;;9.70;1.23;;;;;;;;;;2062505;28;20030;-65
2020/12/23 07:33:48;;;;;;;6.43;1.98;;;;;;;;;;2060186;28;20428;-63
2020/12/23 07:35:07;;;;;;;7.13;2.20;;;;;;;;;;2063849;28;20471;-64
2020/12/23 07:36:26;;;;;;;8.07;1.35;;;;;;;;;;2060876;28;20398;-63
2020/12/23 07:37:44;;;;;;;9.45;1.50;;;;;;;;;;2063635;28;20026;-64
2020/12/23 07:39:03;;;;;;;10.73;1.70;;;;;;;;;;2062275;28;20124;-64
2020/12/23 07:40:22;;;;;;;8.73;0.98;;;;;;;;;;2064042;28;20019;-65
2020/12/23 07:41:53;;;;;;;5.13;1.20;;;;;;;;;;2064621;28;20030;-64
2020/12/23 07:43:12;;;;;;;9.30;1.40;;;;;;;;;;2064391;28;20109;-64
2020/12/23 07:44:32;;;;;;;7.15;1.75;;;;;;;;;;2065871;28;20034;-64
2020/12/23 07:45:50;;;;;;;4.93;0.80;;;;;;;;;;2061669;28;20110;-64
2020/12/23 07:47:09;;;;;;;8.60;1.98;;;;;;;;;;2064110;28;20474;-64
2020/12/23 07:48:29;;;;;;;10.75;1.30;;;;;;;;;;2064750;28;20034;-65
2020/12/23 07:50:01;;;;;;;6.00;1.30;;;;;;;;;;2064254;28;20023;-65
2020/12/23 07:51:19;;;;;;;5.90;1.00;;;;;;;;;;2063616;28;20022;-65
2020/12/23 07:52:39;;;;;;;8.25;1.42;;;;;;;;;;2053961;28;20034;-65
2020/12/23 07:53:58;;;;;;;10.70;1.02;;;;;;;;;;2059453;28;20042;-65
2020/12/23 07:55:18;;;;;;;10.90;1.65;;;;;;;;;;2060252;28;20023;-65
2020/12/23 07:56:37;;;;;;;13.48;1.20;;;;;;;;;;2065842;28;20027;-65
2020/12/23 07:57:56;;;;;;;7.10;1.08;;;;;;;;;;2061722;28;20389;-65
2020/12/23 07:59:22;;;;;;;8.95;1.83;;;;;;;;;;2064594;28;20034;-65
2020/12/23 08:00:44;;;;;;;6.43;1.17;;;;;;;;;;2064427;28;20035;-64